Time;durP1;ratioP1;P1;durP2;ratioP2;P2;SDS_P1;SDS_P2;PMS_P1;PMS_P2;Temp;Humidity;BMP_temperature;BMP_pressure;BME280_temperature;BME280_humidity;BME280_pressure;Samples;Min_cycle;Max_cycle;Signal;HPM_P1;HPM_P2
2022/01/06 00:01:55;;;;;;;3.63;1.10;;;3.40;99.90;;;;;;4191507;28;20517;-75
2022/01/06 00:03:56;;;;;;;5.87;1.33;;;3.40;99.90;;;;;;4191839;28;20518;-76
2022/01/06 00:06:02;;;;;;;5.30;1.57;;;3.40;99.90;;;;;;4191999;28;20495;-76
2022/01/06 00:08:04;;;;;;;7.00;1.57;;;3.40;99.90;;;;;;4191320;28;20476;-78
2022/01/06 00:10:11;;;;;;;4.30;1.17;;;3.40;99.90;;;;;;4194804;28;20954;-77
2022/01/06 00:12:15;;;;;;;10.40;1.63;;;3.40;99.90;;;;;;4191603;28;20462;-77
2022/01/06 00:14:23;;;;;;;6.73;1.50;;;3.40;99.90;;;;;;4190658;28;20611;-77
2022/01/06 00:16:35;;;;;;;5.60;1.07;;;3.40;99.90;;;;;;4189831;28;20527;-77
2022/01/06 00:23:27;;;;;;;5.50;1.30;;;3.40;99.90;;;;;;4189869;28;20462;-77
2022/01/06 00:25:29;;;;;;;5.00;1.30;;;3.30;99.90;;;;;;4189725;28;20985;-77
2022/01/06 00:27:31;;;;;;;10.53;1.37;;;3.30;99.90;;;;;;4193419;28;20502;-77
2022/01/06 00:29:32;;;;;;;6.10;1.37;;;3.30;99.90;;;;;;4190616;28;20494;-77
2022/01/06 00:31:36;;;;;;;13.43;1.40;;;3.30;99.90;;;;;;4192106;28;20472;-77
2022/01/06 00:33:37;;;;;;;12.53;1.33;;;3.20;99.90;;;;;;4192913;28;20497;-76
2022/01/06 00:35:39;;;;;;;11.63;1.30;;;3.20;99.90;;;;;;4190968;28;20802;-77
2022/01/06 00:37:41;;;;;;;12.87;1.43;;;3.20;99.90;;;;;;4193132;28;21027;-76
2022/01/06 00:39:43;;;;;;;5.17;0.73;;;3.10;99.90;;;;;;4191355;28;20491;-77
2022/01/06 00:41:44;;;;;;;8.70;1.27;;;3.20;99.90;;;;;;4190659;28;20940;-76
2022/01/06 00:43:46;;;;;;;8.73;1.30;;;3.10;99.90;;;;;;4191346;28;20452;-77
2022/01/06 00:45:48;;;;;;;6.87;1.27;;;3.10;99.90;;;;;;4189843;28;20462;-76
2022/01/06 00:47:51;;;;;;;6.90;1.30;;;3.00;99.90;;;;;;4193264;28;20507;-76
2022/01/06 00:49:53;;;;;;;2.57;0.70;;;3.00;99.90;;;;;;4189424;28;20492;-77
2022/01/06 00:51:54;;;;;;;4.77;0.73;;;3.00;99.90;;;;;;4190682;28;20452;-76
2022/01/06 00:53:56;;;;;;;2.03;0.80;;;3.00;99.90;;;;;;4192402;28;20478;-76
2022/01/06 00:55:58;;;;;;;6.47;1.07;;;2.90;99.90;;;;;;4191667;28;20459;-77
2022/01/06 00:58:00;;;;;;;7.37;0.80;;;2.90;99.90;;;;;;4190887;28;20833;-77
2022/01/06 01:00:02;;;;;;;4.43;0.87;;;2.90;99.90;;;;;;4188577;28;20536;-77
2022/01/06 01:02:04;;;;;;;6.37;1.10;;;2.90;99.90;;;;;;4194197;28;20824;-77
2022/01/06 01:04:07;;;;;;;6.23;1.37;;;2.90;99.90;;;;;;4190779;28;20458;-76
2022/01/06 01:06:08;;;;;;;3.60;1.00;;;2.90;99.90;;;;;;4189494;28;20458;-77
2022/01/06 01:08:11;;;;;;;6.10;1.07;;;2.90;99.90;;;;;;4191121;28;20471;-77
2022/01/06 01:10:13;;;;;;;4.37;0.80;;;2.90;99.90;;;;;;4173296;28;20498;-77
2022/01/06 01:12:14;;;;;;;4.17;1.10;;;2.80;99.90;;;;;;4174130;28;21015;-77
2022/01/06 01:14:26;;;;;;;9.43;0.90;;;2.80;99.90;;;;;;4172559;28;20462;-76
2022/01/06 01:16:31;;;;;;;3.23;0.70;;;2.80;99.90;;;;;;4173683;28;20506;-77
2022/01/06 01:18:33;;;;;;;2.83;0.70;;;2.80;99.90;;;;;;4172140;28;20506;-77
2022/01/06 01:20:36;;;;;;;2.00;0.50;;;2.80;99.90;;;;;;4179707;28;20478;-77
2022/01/06 01:22:38;;;;;;;5.30;0.60;;;2.80;99.90;;;;;;4175946;28;20513;-78
2022/01/06 01:24:40;;;;;;;5.17;0.90;;;2.70;99.90;;;;;;4172648;28;20477;-77
2022/01/06 01:26:42;;;;;;;5.07;0.70;;;2.80;99.90;;;;;;4171752;28;20498;-77
2022/01/06 01:28:46;;;;;;;4.03;0.70;;;2.70;99.90;;;;;;4172093;28;20527;-77
2022/01/06 01:31:04;;;;;;;3.90;0.70;;;2.70;99.90;;;;;;4172633;28;20851;-77
2022/01/06 01:33:14;;;;;;;3.60;0.70;;;2.70;99.90;;;;;;4173323;28;21049;-78
2022/01/06 01:35:16;;;;;;;4.27;0.70;;;2.70;99.90;;;;;;4168051;28;20823;-77
2022/01/06 01:37:19;;;;;;;2.33;0.60;;;2.70;99.90;;;;;;4173834;28;20810;-77
2022/01/06 01:39:21;;;;;;;5.57;0.80;;;2.60;99.90;;;;;;4171009;28;20493;-77
2022/01/06 01:41:23;;;;;;;1.63;0.60;;;2.70;99.90;;;;;;4174330;28;20459;-77
2022/01/06 01:43:24;;;;;;;5.17;0.83;;;2.70;99.90;;;;;;4176312;28;20521;-77
2022/01/06 01:45:30;;;;;;;2.97;0.80;;;2.60;99.90;;;;;;4173464;28;20457;-77
2022/01/06 01:47:39;;;;;;;4.90;0.80;;;2.60;99.90;;;;;;4171998;28;20493;-77
2022/01/06 01:49:49;;;;;;;3.40;0.77;;;2.60;99.90;;;;;;4167975;28;20514;-77
2022/01/06 01:51:51;;;;;;;5.97;0.83;;;2.60;99.90;;;;;;4173242;28;20452;-77
2022/01/06 01:53:54;;;;;;;9.10;2.23;;;2.70;99.90;;;;;;4174396;28;20453;-77
2022/01/06 01:55:56;;;;;;;4.70;0.80;;;2.70;99.90;;;;;;4173276;28;20461;-77
2022/01/06 01:57:58;;;;;;;3.33;0.87;;;2.70;99.90;;;;;;4181871;28;21104;-77
2022/01/06 02:00:00;;;;;;;6.00;0.97;;;2.70;99.90;;;;;;4171751;28;20557;-77
2022/01/06 02:02:02;;;;;;;4.23;0.97;;;2.60;99.90;;;;;;4186473;28;20957;-77
2022/01/06 02:04:04;;;;;;;7.90;1.10;;;2.60;99.90;;;;;;4183680;28;20464;-77
2022/01/06 02:06:06;;;;;;;6.83;1.37;;;2.70;99.90;;;;;;4178977;28;21114;-77
2022/01/06 02:08:08;;;;;;;3.20;0.90;;;2.70;99.90;;;;;;4187846;28;20589;-77
2022/01/06 02:10:12;;;;;;;3.33;0.97;;;2.60;99.90;;;;;;4193754;28;20461;-77
2022/01/06 02:12:24;;;;;;;10.00;0.90;;;2.70;99.90;;;;;;4216309;28;20556;-76
2022/01/06 02:14:27;;;;;;;3.87;1.07;;;2.60;99.90;;;;;;4183161;28;20819;-76
2022/01/06 02:16:29;;;;;;;3.93;0.87;;;2.60;99.90;;;;;;4198446;28;20482;-77
2022/01/06 02:18:32;;;;;;;6.13;1.37;;;2.70;99.90;;;;;;4205346;28;20501;-77
2022/01/06 02:20:35;;;;;;;10.20;2.03;;;2.70;99.90;;;;;;4185930;28;20505;-77
2022/01/06 02:22:37;;;;;;;8.73;1.20;;;2.70;99.90;;;;;;4196608;28;20443;-77
2022/01/06 02:24:39;;;;;;;10.83;1.60;;;2.70;99.90;;;;;;4199113;28;20494;-77
2022/01/06 02:26:40;;;;;;;7.83;1.13;;;2.70;99.90;;;;;;4215527;28;20837;-77
2022/01/06 02:28:42;;;;;;;6.70;1.30;;;2.70;99.90;;;;;;4204070;28;20471;-77
2022/01/06 02:30:48;;;;;;;6.50;1.40;;;2.70;99.90;;;;;;4198275;28;20478;-77
2022/01/06 02:32:50;;;;;;;4.93;1.30;;;2.70;99.90;;;;;;4204376;28;21153;-77
2022/01/06 02:34:52;;;;;;;6.23;1.30;;;2.70;99.90;;;;;;4211072;28;20507;-77
2022/01/06 02:36:55;;;;;;;8.20;1.40;;;2.70;99.90;;;;;;4215253;28;20528;-77
2022/01/06 02:38:57;;;;;;;4.77;1.87;;;2.70;99.90;;;;;;4198243;28;20504;-77
2022/01/06 02:40:59;;;;;;;8.70;1.60;;;2.70;99.90;;;;;;4190714;28;20476;-77
2022/01/06 02:43:02;;;;;;;6.63;1.33;;;2.70;99.90;;;;;;4211232;28;20459;-77
2022/01/06 02:45:05;;;;;;;6.73;1.60;;;2.70;99.90;;;;;;4198437;28;20456;-77
2022/01/06 02:47:07;;;;;;;8.87;1.60;;;2.70;99.90;;;;;;4197421;28;20548;-77
2022/01/06 02:49:12;;;;;;;4.73;1.47;;;2.70;99.90;;;;;;4192316;28;20487;-78
2022/01/06 02:51:13;;;;;;;11.17;2.00;;;2.70;99.90;;;;;;4191869;28;20858;-77
2022/01/06 02:53:18;;;;;;;5.83;1.70;;;2.70;99.90;;;;;;4195584;28;20514;-78
2022/01/06 02:55:20;;;;;;;9.73;1.63;;;2.70;99.90;;;;;;4194004;28;20522;-78
2022/01/06 02:57:22;;;;;;;13.20;2.03;;;2.70;99.90;;;;;;4212367;28;20447;-78
2022/01/06 02:59:25;;;;;;;19.60;2.40;;;2.70;99.90;;;;;;4188812;28;20504;-78
2022/01/06 03:01:27;;;;;;;9.77;1.63;;;2.70;99.90;;;;;;4184146;28;20902;-77
2022/01/06 03:03:28;;;;;;;10.00;1.90;;;2.70;99.90;;;;;;4180877;28;20958;-77
2022/01/06 03:05:30;;;;;;;7.37;1.70;;;2.70;99.90;;;;;;4201014;28;20837;-77
2022/01/06 03:07:32;;;;;;;7.93;1.90;;;2.70;99.90;;;;;;4197040;28;20905;-77
2022/01/06 03:09:40;;;;;;;9.70;1.47;;;2.70;99.90;;;;;;4196427;28;20529;-78
2022/01/06 03:11:43;;;;;;;7.90;1.40;;;2.60;99.90;;;;;;4198628;28;20903;-77
2022/01/06 03:13:45;;;;;;;10.80;1.57;;;2.50;99.90;;;;;;4197980;28;20521;-78
2022/01/06 03:15:47;;;;;;;5.97;1.70;;;2.40;99.90;;;;;;4180201;28;20529;-77
2022/01/06 03:17:50;;;;;;;6.23;1.50;;;2.40;99.90;;;;;;4192648;28;20451;-77
2022/01/06 03:19:52;;;;;;;10.23;1.83;;;2.30;99.90;;;;;;4197711;28;20477;-78
2022/01/06 03:21:53;;;;;;;5.07;1.63;;;2.30;99.90;;;;;;4198461;28;20473;-78
2022/01/06 03:23:55;;;;;;;4.67;1.60;;;2.20;99.90;;;;;;4195228;28;20464;-78
2022/01/06 03:25:58;;;;;;;9.03;2.20;;;2.20;99.90;;;;;;4195093;28;20509;-77
2022/01/06 03:28:00;;;;;;;6.77;1.90;;;2.20;99.90;;;;;;4184356;28;20490;-77
2022/01/06 03:30:02;;;;;;;7.70;2.10;;;2.20;99.90;;;;;;4202338;28;20461;-77
2022/01/06 03:32:04;;;;;;;6.93;2.50;;;2.20;99.90;;;;;;4199806;28;20527;-77
2022/01/06 03:34:08;;;;;;;6.77;2.30;;;2.10;99.90;;;;;;4203462;28;20462;-77
2022/01/06 03:36:10;;;;;;;8.20;2.10;;;2.10;99.90;;;;;;4195638;28;20977;-77
2022/01/06 03:38:11;;;;;;;3.77;1.50;;;2.00;99.90;;;;;;4196787;28;20463;-77
2022/01/06 03:40:13;;;;;;;7.77;1.47;;;1.90;99.90;;;;;;4194512;28;20475;-77
2022/01/06 03:42:16;;;;;;;3.17;1.40;;;1.90;99.90;;;;;;4197720;28;20469;-77
2022/01/06 03:44:19;;;;;;;3.47;1.50;;;1.80;99.90;;;;;;4197044;28;20512;-77
2022/01/06 03:46:20;;;;;;;4.27;1.40;;;1.80;99.90;;;;;;4205035;28;20514;-78
2022/01/06 03:48:22;;;;;;;4.63;1.50;;;1.70;99.90;;;;;;4207186;28;21010;-77
2022/01/06 03:50:24;;;;;;;2.60;1.30;;;1.70;99.90;;;;;;4192167;28;20459;-77
2022/01/06 03:52:26;;;;;;;3.83;1.50;;;1.70;99.90;;;;;;4197546;28;20453;-78
2022/01/06 03:54:28;;;;;;;3.43;1.47;;;1.70;99.90;;;;;;4202595;28;20473;-77
2022/01/06 03:56:29;;;;;;;3.73;1.50;;;1.70;99.90;;;;;;4209461;28;20453;-77
2022/01/06 03:58:32;;;;;;;4.13;1.40;;;1.70;99.90;;;;;;4186247;28;20521;-78
2022/01/06 04:00:34;;;;;;;3.77;1.70;;;1.60;99.90;;;;;;4196931;28;20511;-77
2022/01/06 04:02:36;;;;;;;2.07;1.53;;;1.60;99.90;;;;;;4195730;28;20459;-78
2022/01/06 04:04:38;;;;;;;4.23;1.67;;;1.60;99.90;;;;;;4201849;28;20536;-78
2022/01/06 04:06:40;;;;;;;3.73;1.63;;;1.50;99.90;;;;;;4206913;28;20544;-78
2022/01/06 04:08:42;;;;;;;3.20;1.50;;;1.50;99.90;;;;;;4204530;28;20490;-78
2022/01/06 04:10:43;;;;;;;4.53;1.20;;;1.50;99.90;;;;;;4190643;28;20461;-78
2022/01/06 04:12:45;;;;;;;5.03;1.60;;;1.50;99.90;;;;;;4196224;28;20444;-78
2022/01/06 04:14:48;;;;;;;6.43;1.50;;;1.40;99.90;;;;;;4194692;28;20550;-78
2022/01/06 04:16:57;;;;;;;2.50;1.03;;;1.40;99.90;;;;;;4197373;28;20823;-77
2022/01/06 04:18:59;;;;;;;2.87;1.30;;;1.40;99.90;;;;;;4195941;28;20473;-77
2022/01/06 04:21:00;;;;;;;3.27;1.60;;;1.40;99.90;;;;;;4196283;28;20482;-77
2022/01/06 04:23:02;;;;;;;2.77;1.40;;;1.30;99.90;;;;;;4202354;28;20494;-77
2022/01/06 04:25:05;;;;;;;4.13;1.37;;;1.30;99.90;;;;;;4190680;28;20519;-77
2022/01/06 04:27:07;;;;;;;1.80;1.13;;;1.20;99.90;;;;;;4195044;28;20801;-77
2022/01/06 04:29:08;;;;;;;5.63;1.60;;;1.20;99.90;;;;;;4202056;28;20497;-78
2022/01/06 04:31:12;;;;;;;6.53;1.50;;;1.10;99.90;;;;;;4197959;28;20470;-77
2022/01/06 04:33:13;;;;;;;2.10;1.07;;;1.10;99.90;;;;;;4201814;28;20476;-77
2022/01/06 04:35:15;;;;;;;3.53;1.23;;;1.10;99.90;;;;;;4212027;28;20581;-78
2022/01/06 04:37:17;;;;;;;5.10;1.10;;;1.00;99.90;;;;;;4189510;28;20466;-78
2022/01/06 04:39:19;;;;;;;5.50;1.63;;;1.00;99.90;;;;;;4188106;28;20557;-77
2022/01/06 04:41:20;;;;;;;7.57;1.40;;;1.00;99.90;;;;;;4209033;28;20970;-78
2022/01/06 04:43:22;;;;;;;3.00;1.07;;;0.90;99.90;;;;;;4211115;28;20530;-78
2022/01/06 04:45:24;;;;;;;3.83;1.30;;;0.90;99.90;;;;;;4196992;28;20453;-78
2022/01/06 04:47:27;;;;;;;6.17;1.30;;;0.80;99.90;;;;;;4191884;28;20473;-78
2022/01/06 04:49:29;;;;;;;3.20;1.30;;;0.80;99.90;;;;;;4196311;28;20472;-78
2022/01/06 04:51:30;;;;;;;2.13;1.00;;;0.70;99.90;;;;;;4197226;28;20448;-78
2022/01/06 04:53:32;;;;;;;5.53;1.20;;;0.70;99.90;;;;;;4200084;28;20464;-78
2022/01/06 04:55:34;;;;;;;3.33;1.10;;;0.60;99.90;;;;;;4190765;28;20457;-78
2022/01/06 04:57:36;;;;;;;2.60;1.20;;;0.60;99.90;;;;;;4190760;28;20517;-78
2022/01/06 04:59:37;;;;;;;3.13;1.30;;;0.60;99.90;;;;;;4194478;28;20472;-78
2022/01/06 05:01:40;;;;;;;5.50;1.60;;;0.60;99.90;;;;;;4191376;28;20524;-78
2022/01/06 05:03:43;;;;;;;7.00;1.47;;;0.50;99.90;;;;;;4206125;28;20445;-78
2022/01/06 05:05:44;;;;;;;2.87;1.27;;;0.50;99.90;;;;;;4203337;28;20451;-78
2022/01/06 05:07:46;;;;;;;2.43;0.93;;;0.50;99.90;;;;;;4193465;28;20989;-78
2022/01/06 05:09:48;;;;;;;2.40;1.30;;;0.40;99.90;;;;;;4198498;28;20524;-78
2022/01/06 05:11:50;;;;;;;2.93;1.40;;;0.40;99.90;;;;;;4195615;28;20957;-78
2022/01/06 05:13:52;;;;;;;3.87;1.27;;;0.30;99.90;;;;;;4190373;28;20483;-78
2022/01/06 05:15:53;;;;;;;4.17;1.30;;;0.30;99.90;;;;;;4196527;28;20456;-78
2022/01/06 05:17:55;;;;;;;4.77;1.40;;;0.30;99.90;;;;;;4195228;28;20854;-78
2022/01/06 05:19:58;;;;;;;3.87;1.23;;;0.30;99.90;;;;;;4196212;28;20468;-78
2022/01/06 05:22:00;;;;;;;4.37;1.40;;;0.30;99.90;;;;;;4197260;28;20460;-78
2022/01/06 05:24:09;;;;;;;3.43;1.20;;;0.20;99.90;;;;;;4196144;28;20472;-78
2022/01/06 05:26:11;;;;;;;2.80;1.00;;;0.20;99.90;;;;;;4197337;28;20827;-78
2022/01/06 05:28:13;;;;;;;2.87;1.20;;;0.20;99.90;;;;;;4200730;28;21054;-78
2022/01/06 05:30:15;;;;;;;3.33;1.20;;;0.20;99.90;;;;;;4202905;28;20459;-78
2022/01/06 05:32:17;;;;;;;3.03;1.20;;;0.20;99.90;;;;;;4185369;28;20472;-78
2022/01/06 05:34:18;;;;;;;5.07;1.30;;;0.10;99.90;;;;;;4193260;28;20510;-78
2022/01/06 05:36:21;;;;;;;2.97;1.30;;;0.10;99.90;;;;;;4209947;28;20503;-78
2022/01/06 05:38:23;;;;;;;2.17;1.17;;;0.00;99.90;;;;;;4198056;28;20532;-77
2022/01/06 05:40:25;;;;;;;5.27;1.57;;;0.00;99.90;;;;;;4198267;28;21011;-77
2022/01/06 05:42:27;;;;;;;6.50;2.30;;;0.00;99.90;;;;;;4215627;28;20497;-77
2022/01/06 05:44:33;;;;;;;15.23;3.90;;;0.00;99.90;;;;;;4213621;28;20478;-76
2022/01/06 05:46:34;;;;;;;13.13;3.13;;;0.00;99.90;;;;;;4205185;28;20444;-76
2022/01/06 05:48:36;;;;;;;11.20;3.03;;;0.40;99.90;;;;;;4199856;28;20523;-77
2022/01/06 05:50:38;;;;;;;6.67;2.40;;;0.00;99.90;;;;;;4197329;28;20455;-77
2022/01/06 05:52:41;;;;;;;4.27;1.87;;;-0.10;99.90;;;;;;4199667;28;20460;-76
2022/01/06 05:54:43;;;;;;;8.67;1.90;;;-0.10;99.90;;;;;;4196933;28;20848;-76
2022/01/06 05:56:45;;;;;;;5.37;1.40;;;-0.10;99.90;;;;;;4192936;28;20502;-77
2022/01/06 05:58:46;;;;;;;3.93;1.30;;;-0.20;99.90;;;;;;4190434;28;20997;-77
2022/01/06 06:00:50;;;;;;;3.77;1.20;;;-0.20;99.90;;;;;;4199293;28;20461;-76
2022/01/06 06:02:52;;;;;;;4.07;1.53;;;-0.20;99.90;;;;;;4200010;28;20932;-76
2022/01/06 06:04:54;;;;;;;7.63;1.33;;;-0.20;99.90;;;;;;4207579;28;21001;-78
2022/01/06 06:06:56;;;;;;;3.13;1.37;;;0.30;99.90;;;;;;4198881;28;20639;-76
2022/01/06 06:08:59;;;;;;;2.13;1.20;;;-0.30;99.90;;;;;;4291124;22;20467;-80
2022/01/06 06:11:01;;;;;;;5.27;1.30;;;-0.30;99.90;;;;;;4184175;28;20449;-81
2022/01/06 06:13:03;;;;;;;2.10;1.10;;;-0.30;99.90;;;;;;4183202;28;20814;-82
2022/01/06 06:15:06;;;;;;;3.87;1.23;;;-0.30;99.90;;;;;;4182355;28;20449;-84
2022/01/06 06:17:08;;;;;;;5.10;1.83;;;-0.30;99.90;;;;;;4183971;28;20881;-80
2022/01/06 06:19:10;;;;;;;5.87;1.60;;;-0.30;99.90;;;;;;4197897;28;20468;-84
2022/01/06 06:21:12;;;;;;;2.80;1.17;;;-0.30;99.90;;;;;;4201168;28;20479;-83
2022/01/06 06:23:14;;;;;;;2.50;1.27;;;-0.40;99.90;;;;;;4187631;28;20922;-83
2022/01/06 06:25:17;;;;;;;5.07;1.47;;;-0.40;99.90;;;;;;4184436;28;20805;-83
2022/01/06 06:27:19;;;;;;;3.60;1.63;;;-0.40;99.90;;;;;;4184355;28;20460;-82
2022/01/06 06:29:22;;;;;;;6.67;1.70;;;-0.40;99.90;;;;;;4184004;28;21011;-80
2022/01/06 06:31:24;;;;;;;3.97;1.60;;;-0.40;99.90;;;;;;4185108;28;20489;-80
2022/01/06 06:33:27;;;;;;;5.47;1.83;;;-0.40;99.90;;;;;;4184118;28;20468;-80
2022/01/06 06:35:30;;;;;;;4.13;1.70;;;-0.40;99.90;;;;;;4184123;28;20448;-81
2022/01/06 06:37:32;;;;;;;3.57;1.70;;;-0.40;99.90;;;;;;4185712;28;20980;-80
2022/01/06 06:39:34;;;;;;;2.70;1.33;;;-0.50;99.90;;;;;;4195890;28;20490;-80
2022/01/06 06:41:40;;;;;;;2.70;1.60;;;-0.50;99.90;;;;;;4186662;28;20500;-80
2022/01/06 06:43:42;;;;;;;7.83;1.50;;;-0.50;99.90;;;;;;4182955;28;20965;-82
2022/01/06 06:45:44;;;;;;;5.30;1.80;;;0.30;99.90;;;;;;4182226;28;20453;-80
2022/01/06 06:47:46;;;;;;;6.77;1.90;;;-0.40;99.90;;;;;;4183616;28;20465;-80
2022/01/06 06:49:48;;;;;;;6.00;1.73;;;-0.50;99.90;;;;;;4183222;28;20496;-80
2022/01/06 06:51:50;;;;;;;3.97;1.70;;;-0.50;99.90;;;;;;4167943;28;20528;-80
2022/01/06 06:53:52;;;;;;;4.40;1.70;;;-0.50;99.90;;;;;;4166413;28;20466;-80
2022/01/06 06:55:54;;;;;;;4.97;2.13;;;-0.50;99.90;;;;;;4182233;28;20452;-80
2022/01/06 06:57:57;;;;;;;4.28;1.67;;;-0.50;99.90;;;;;;4175659;28;20464;-80
2022/01/06 07:00:03;;;;;;;5.73;1.90;;;-0.50;99.90;;;;;;4186726;28;20239;-84
2022/01/06 07:02:05;;;;;;;3.23;1.70;;;-0.50;99.90;;;;;;4196106;28;20460;-83
2022/01/06 07:04:07;;;;;;;4.40;1.67;;;-0.50;99.90;;;;;;4197607;28;20441;-80
2022/01/06 07:06:09;;;;;;;4.80;1.50;;;-0.50;99.90;;;;;;4195348;28;20467;-82
2022/01/06 07:08:10;;;;;;;3.27;1.60;;;-0.50;99.90;;;;;;4201135;28;20457;-82
2022/01/06 07:10:12;;;;;;;5.37;1.87;;;-0.50;99.90;;;;;;4194485;28;20488;-81
2022/01/06 07:12:14;;;;;;;4.00;1.60;;;-0.50;99.90;;;;;;4194497;28;20455;-82
2022/01/06 07:14:18;;;;;;;2.60;1.50;;;-0.50;99.90;;;;;;4200222;28;20944;-81
2022/01/06 07:16:19;;;;;;;7.43;1.87;;;-0.40;99.90;;;;;;4173946;28;20466;-81
2022/01/06 07:18:21;;;;;;;2.87;1.40;;;-0.40;99.90;;;;;;4174453;28;20480;-81
2022/01/06 07:20:23;;;;;;;3.70;1.60;;;-0.20;99.90;;;;;;4185334;28;20473;-80
2022/01/06 07:22:25;;;;;;;4.17;1.60;;;-0.30;99.90;;;;;;4185972;28;21015;-82
2022/01/06 07:24:27;;;;;;;5.65;1.73;;;-0.30;99.90;;;;;;4175278;28;20544;-81
2022/01/06 07:26:29;;;;;;;2.90;1.40;;;-1.40;99.90;;;;;;4191972;28;20218;-81
2022/01/06 07:28:31;;;;;;;5.83;1.57;;;-0.30;99.90;;;;;;4187249;28;20984;-81
2022/01/06 07:30:34;;;;;;;3.87;1.33;;;-0.20;99.90;;;;;;4185152;28;20898;-81
2022/01/06 07:32:43;;;;;;;4.50;1.20;;;0.80;99.90;;;;;;4184559;28;20461;-81
2022/01/06 07:34:45;;;;;;;2.90;1.20;;;-0.20;99.90;;;;;;4172438;28;20933;-81
2022/01/06 07:36:47;;;;;;;2.97;1.40;;;-0.20;99.90;;;;;;4183093;28;20483;-81
2022/01/06 07:38:48;;;;;;;5.13;1.20;;;-0.20;99.90;;;;;;4193593;28;21105;-81
2022/01/06 07:40:50;;;;;;;2.17;0.93;;;-0.20;99.90;;;;;;4189900;28;20973;-81
2022/01/06 07:42:53;;;;;;;1.87;1.20;;;-0.30;99.90;;;;;;4198449;28;20452;-81
2022/01/06 07:44:55;;;;;;;3.57;1.10;;;-0.20;99.90;;;;;;4185217;28;20865;-81
2022/01/06 07:47:00;;;;;;;3.77;1.57;;;-0.20;99.90;;;;;;4186655;28;20453;-81
2022/01/06 07:49:03;;;;;;;2.83;1.17;;;-0.20;99.90;;;;;;4175904;28;20515;-81
2022/01/06 07:51:05;;;;;;;5.73;1.20;;;-0.20;99.90;;;;;;4188989;28;20472;-81
2022/01/06 07:53:07;;;;;;;4.40;1.70;;;-0.10;99.90;;;;;;4193741;28;20465;-81
2022/01/06 07:55:09;;;;;;;3.90;1.40;;;-0.10;99.90;;;;;;4189224;28;20462;-81
2022/01/06 07:57:11;;;;;;;6.83;1.40;;;-0.10;99.90;;;;;;4177907;28;20471;-81
2022/01/06 07:59:12;;;;;;;3.33;1.50;;;-0.10;99.90;;;;;;4182079;28;20899;-80
2022/01/06 08:01:15;;;;;;;3.87;1.27;;;-0.10;99.90;;;;;;4182103;28;20544;-81
2022/01/06 08:03:18;;;;;;;5.03;1.53;;;-0.10;99.90;;;;;;4181460;28;20464;-81
2022/01/06 08:05:22;;;;;;;3.30;1.20;;;-0.10;99.90;;;;;;4182643;28;21029;-81
2022/01/06 08:07:24;;;;;;;2.87;1.00;;;0.00;99.90;;;;;;4197929;28;20455;-81
2022/01/06 08:09:25;;;;;;;3.13;1.10;;;0.00;99.90;;;;;;4191027;28;20491;-81
2022/01/06 08:11:27;;;;;;;6.23;1.20;;;0.00;99.90;;;;;;4184930;28;20468;-81
2022/01/06 08:13:29;;;;;;;4.50;1.17;;;0.00;99.90;;;;;;4186962;28;20504;-80
2022/01/06 08:15:31;;;;;;;3.40;1.47;;;0.00;99.90;;;;;;4180192;28;20476;-81
2022/01/06 08:17:36;;;;;;;3.70;1.20;;;0.00;99.90;;;;;;4180639;28;20882;-81
2022/01/06 08:19:40;;;;;;;4.80;1.53;;;0.00;99.90;;;;;;4181753;28;20564;-81
2022/01/06 08:21:42;;;;;;;3.17;1.23;;;0.00;99.90;;;;;;4180828;28;20465;-81
2022/01/06 08:23:44;;;;;;;2.50;1.20;;;0.20;99.90;;;;;;4170079;28;20481;-81
2022/01/06 08:25:46;;;;;;;3.73;1.10;;;0.00;99.90;;;;;;4182833;28;20887;-81
2022/01/06 08:27:48;;;;;;;3.07;1.10;;;1.40;99.90;;;;;;4183514;28;20466;-81
2022/01/06 08:29:51;;;;;;;2.97;1.37;;;0.10;99.90;;;;;;4183829;28;20501;-81
2022/01/06 08:31:53;;;;;;;2.87;1.03;;;0.10;99.90;;;;;;4189039;28;20471;-81
2022/01/06 08:33:55;;;;;;;2.80;1.13;;;0.10;99.90;;;;;;4181472;28;20474;-80
2022/01/06 08:35:58;;;;;;;3.00;1.33;;;0.30;99.90;;;;;;4183395;28;20465;-81
2022/01/06 08:38:00;;;;;;;8.23;1.70;;;0.50;99.90;;;;;;4186329;28;20541;-80
2022/01/06 08:40:02;;;;;;;2.70;1.37;;;0.90;99.90;;;;;;4188027;28;20483;-80
2022/01/06 08:42:05;;;;;;;4.80;1.30;;;0.10;99.90;;;;;;4184491;28;20477;-81
2022/01/06 08:44:06;;;;;;;4.17;1.57;;;0.10;99.90;;;;;;4185358;28;20471;-81
2022/01/06 08:46:08;;;;;;;3.60;1.50;;;0.20;99.90;;;;;;4183110;28;20894;-81
2022/01/06 08:48:10;;;;;;;3.03;1.57;;;0.20;99.90;;;;;;4181348;28;21137;-81
2022/01/06 08:50:13;;;;;;;2.53;1.50;;;0.20;99.90;;;;;;4179920;28;20907;-81
2022/01/06 08:52:28;;;;;;;2.80;0.97;;;0.20;99.90;;;;;;4178468;28;20462;-81
2022/01/06 08:54:33;;;;;;;2.63;1.43;;;0.20;99.90;;;;;;4180602;28;20458;-80
2022/01/06 08:56:35;;;;;;;3.97;1.10;;;0.20;99.90;;;;;;4182511;28;20462;-80
2022/01/06 08:58:37;;;;;;;2.03;1.10;;;0.20;99.90;;;;;;4178756;28;20984;-81
2022/01/06 09:00:39;;;;;;;2.63;1.23;;;0.20;99.90;;;;;;4184149;28;20456;-81
2022/01/06 09:02:41;;;;;;;2.10;1.20;;;0.20;99.90;;;;;;4179568;28;20468;-81
2022/01/06 09:04:43;;;;;;;4.20;1.30;;;0.20;99.90;;;;;;4178188;28;20484;-81
2022/01/06 09:06:45;;;;;;;2.00;1.03;;;0.30;99.90;;;;;;4184438;28;20978;-81
2022/01/06 09:08:48;;;;;;;4.83;1.40;;;0.20;99.90;;;;;;4178891;28;21001;-81
2022/01/06 09:10:50;;;;;;;2.17;1.10;;;0.30;99.90;;;;;;4180218;28;20565;-81
2022/01/06 09:12:52;;;;;;;4.90;1.30;;;0.30;99.90;;;;;;4183416;28;21002;-81
2022/01/06 09:14:53;;;;;;;5.63;1.83;;;0.30;99.90;;;;;;4183724;28;20981;-81
2022/01/06 09:16:55;;;;;;;1.60;1.00;;;0.30;99.90;;;;;;4183190;28;20452;-81
2022/01/06 09:18:57;;;;;;;3.20;1.40;;;0.80;99.90;;;;;;4181468;28;20542;-81
2022/01/06 09:20:59;;;;;;;2.70;1.20;;;0.30;99.90;;;;;;4183217;28;20557;-81
2022/01/06 09:23:01;;;;;;;6.57;1.40;;;0.30;99.90;;;;;;4182803;28;20455;-80
2022/01/06 09:25:05;;;;;;;5.00;1.27;;;0.30;99.90;;;;;;4182310;28;20844;-80
2022/01/06 09:27:06;;;;;;;5.30;2.10;;;0.20;99.90;;;;;;4176652;28;20466;-81
2022/01/06 09:29:09;;;;;;;4.97;1.30;;;0.30;99.90;;;;;;4178487;28;20489;-81
2022/01/06 09:31:11;;;;;;;4.10;1.00;;;0.20;99.90;;;;;;4176517;28;20470;-81
2022/01/06 09:33:13;;;;;;;3.93;1.20;;;0.30;99.90;;;;;;4178502;28;20464;-81
2022/01/06 09:35:15;;;;;;;5.90;1.40;;;0.30;99.90;;;;;;4175268;28;20460;-81
2022/01/06 09:37:18;;;;;;;3.97;1.30;;;0.30;99.90;;;;;;4178716;28;20992;-81
2022/01/06 09:39:20;;;;;;;6.30;1.20;;;0.30;99.90;;;;;;4182944;28;20524;-81
2022/01/06 09:41:27;;;;;;;3.53;1.27;;;0.30;99.90;;;;;;4183424;28;20519;-81
2022/01/06 09:43:30;;;;;;;4.73;1.40;;;0.30;99.90;;;;;;4178999;28;20482;-81
2022/01/06 09:45:34;;;;;;;3.33;1.47;;;1.00;99.90;;;;;;4178521;28;20473;-81
2022/01/06 09:47:37;;;;;;;4.07;1.40;;;0.70;99.90;;;;;;4178127;28;20590;-81
2022/01/06 09:49:42;;;;;;;4.03;1.57;;;1.60;99.90;;;;;;4179910;28;20496;-80
2022/01/06 09:51:46;;;;;;;5.87;1.50;;;0.30;99.90;;;;;;4187556;28;20505;-81
2022/01/06 09:53:48;;;;;;;4.57;0.90;;;0.40;99.90;;;;;;4188899;28;20457;-81
2022/01/06 09:55:50;;;;;;;3.17;1.10;;;0.40;99.90;;;;;;4178538;28;20815;-81
2022/01/06 09:57:58;;;;;;;3.30;1.20;;;0.40;99.90;;;;;;4185300;28;20514;-81
2022/01/06 10:00:05;;;;;;;2.67;1.30;;;0.40;99.90;;;;;;4185588;28;20471;-81
2022/01/06 10:02:13;;;;;;;3.40;1.30;;;0.40;99.90;;;;;;4186589;28;20470;-81
2022/01/06 10:04:25;;;;;;;2.67;1.30;;;0.50;99.90;;;;;;4191691;28;21029;-81
2022/01/06 10:06:29;;;;;;;4.33;1.20;;;0.50;99.90;;;;;;4188041;28;20781;-81
2022/01/06 10:08:31;;;;;;;3.33;1.30;;;0.50;99.90;;;;;;4181369;28;20882;-81
2022/01/06 10:10:34;;;;;;;6.47;1.40;;;0.50;99.90;;;;;;4183937;28;20581;-81
2022/01/06 10:12:38;;;;;;;3.17;1.03;;;0.50;99.90;;;;;;4182167;28;20475;-81
2022/01/06 10:14:47;;;;;;;2.97;1.10;;;0.50;99.90;;;;;;4176193;28;20503;-85
2022/01/06 10:16:50;;;;;;;3.33;0.90;;;0.50;99.90;;;;;;4172007;28;20464;-81
2022/01/06 10:19:01;;;;;;;3.13;1.03;;;0.60;99.90;;;;;;4171810;28;20483;-80
2022/01/06 10:21:12;;;;;;;4.03;1.20;;;0.60;99.90;;;;;;4179190;28;20453;-81
2022/01/06 10:23:16;;;;;;;4.07;1.13;;;0.60;99.90;;;;;;4179523;28;20467;-80
2022/01/06 10:25:20;;;;;;;1.93;0.97;;;0.60;99.90;;;;;;4179792;28;20934;-80
2022/01/06 10:27:25;;;;;;;3.70;1.20;;;0.60;99.90;;;;;;4180114;28;20474;-80
2022/01/06 10:29:31;;;;;;;7.87;1.40;;;0.60;99.90;;;;;;4180310;28;20509;-80
2022/01/06 10:31:34;;;;;;;4.97;1.37;;;0.70;99.90;;;;;;4181663;28;20916;-80
2022/01/06 10:33:39;;;;;;;4.50;1.07;;;0.60;99.90;;;;;;4183060;28;20446;-80
2022/01/06 10:35:41;;;;;;;6.60;1.40;;;0.70;99.90;;;;;;4181961;28;20485;-80
2022/01/06 10:37:44;;;;;;;3.37;1.20;;;0.70;99.90;;;;;;4180638;28;20466;-80
2022/01/06 10:39:51;;;;;;;4.93;1.63;;;0.70;99.90;;;;;;4179783;28;20474;-80
2022/01/06 10:41:53;;;;;;;5.90;1.47;;;1.10;99.90;;;;;;4179796;28;20465;-80
2022/01/06 10:43:56;;;;;;;3.50;1.30;;;0.70;99.90;;;;;;4181530;28;20481;-80
2022/01/06 10:46:02;;;;;;;6.40;1.63;;;0.80;99.90;;;;;;4180478;28;20889;-81
2022/01/06 10:48:05;;;;;;;2.37;1.00;;;0.80;99.90;;;;;;4177654;28;20480;-80
2022/01/06 10:50:16;;;;;;;2.87;1.27;;;0.80;99.90;;;;;;4178863;28;20543;-81
2022/01/06 10:52:26;;;;;;;3.70;1.27;;;0.90;99.90;;;;;;4180590;28;20439;-80